Time;durP1;ratioP1;P1;durP2;ratioP2;P2;SDS_P1;SDS_P2;PMS_P1;PMS_P2;Temp;Humidity;BMP_temperature;BMP_pressure;BME280_temperature;BME280_humidity;BME280_pressure;Samples;Min_cycle;Max_cycle;Signal;HPM_P1;HPM_P2
2022/02/21 00:00:35;;;;;;;1.70;1.30;;;;;;;6.39;78.42;98129.17;215559;1278;151334;-77
2022/02/21 00:05:49;;;;;;;9.20;2.70;;;;;;;6.40;77.77;98117.27;214547;1279;140288;-77
2022/02/21 00:10:53;;;;;;;2.40;2.10;;;;;;;6.43;78.10;98106.16;212741;1280;140903;-75
2022/02/21 00:15:57;;;;;;;2.30;2.00;;;;;;;6.44;78.18;98101.20;212765;1279;159896;-77
2022/02/21 00:21:03;;;;;;;3.50;2.00;;;;;;;6.43;78.02;98097.27;213521;1280;140822;-76
2022/02/21 00:26:08;;;;;;;2.60;2.10;;;;;;;6.40;78.49;98085.30;213758;1279;140670;-76
2022/02/21 00:31:13;;;;;;;2.10;1.40;;;;;;;6.34;78.59;98079.19;213466;1277;140639;-73
2022/02/21 00:36:20;;;;;;;2.30;2.00;;;;;;;6.27;78.76;98076.77;213930;1279;139655;-73
2022/02/21 00:41:27;;;;;;;4.70;2.60;;;;;;;6.20;78.78;98061.82;213141;1278;140560;-70
2022/02/21 00:46:31;;;;;;;6.10;2.30;;;;;;;6.16;79.02;98050.96;212680;1278;140178;-74
2022/02/21 00:51:36;;;;;;;2.70;2.40;;;;;;;6.10;79.36;98043.77;213004;1278;139512;-74
2022/02/21 00:56:41;;;;;;;2.40;2.00;;;;;;;6.03;79.67;98025.49;213189;1279;141084;-73
2022/02/21 01:01:51;;;;;;;2.10;1.70;;;;;;;5.98;79.69;98022.52;212629;1279;140255;-72
2022/02/21 01:06:57;;;;;;;3.30;1.90;;;;;;;5.96;80.14;98012.66;213930;1278;140201;-73
2022/02/21 01:12:02;;;;;;;2.00;1.80;;;;;;;5.94;80.17;98001.26;213485;1278;140457;-74
2022/02/21 01:17:08;;;;;;;2.50;2.00;;;;;;;5.90;80.27;97990.95;213213;1278;139696;-72
2022/02/21 01:22:14;;;;;;;2.30;2.20;;;;;;;5.87;80.31;97975.23;213529;1279;139700;-70
2022/02/21 01:27:18;;;;;;;2.20;1.90;;;;;;;5.84;80.77;97966.77;213821;1279;140543;-74
2022/02/21 01:32:27;;;;;;;2.60;1.90;;;;;;;5.83;80.95;97953.48;213215;1279;139968;-71
2022/02/21 01:37:32;;;;;;;2.70;2.20;;;;;;;5.79;81.02;97943.41;214526;1279;139411;-73
2022/02/21 01:42:37;;;;;;;3.80;1.70;;;;;;;5.75;81.25;97934.28;214696;1279;140017;-73
2022/02/21 01:47:41;;;;;;;3.30;1.80;;;;;;;5.78;81.18;97919.98;214086;1279;141459;-73
2022/02/21 01:52:47;;;;;;;2.70;2.10;;;;;;;5.78;81.36;97910.46;214530;1279;141492;-73
2022/02/21 01:57:52;;;;;;;3.10;2.60;;;;;;;5.78;81.53;97898.41;215213;1278;140428;-75
2022/02/21 02:02:56;;;;;;;3.40;2.40;;;;;;;5.78;81.50;97881.44;214084;1279;140497;-73
2022/02/21 02:08:02;;;;;;;2.40;1.80;;;;;;;5.81;81.69;97873.42;215345;1277;140580;-73
2022/02/21 02:13:06;;;;;;;1.90;1.80;;;;;;;5.81;81.81;97858.03;215058;1277;140966;-73
2022/02/21 02:18:14;;;;;;;2.10;1.90;;;;;;;5.81;81.98;97843.98;213923;1277;140551;-75
2022/02/21 02:23:19;;;;;;;4.30;1.80;;;;;;;5.81;81.89;97838.52;214740;1276;140073;-72
2022/02/21 02:28:25;;;;;;;2.20;2.00;;;;;;;5.80;81.88;97819.33;213636;1277;139494;-72
2022/02/21 02:33:32;;;;;;;1.40;1.30;;;;;;;5.79;82.10;97812.39;213334;1278;143597;-73
2022/02/21 02:38:40;;;;;;;2.00;1.60;;;;;;;5.79;82.20;97802.88;214130;1279;141013;-71
2022/02/21 02:43:44;;;;;;;1.00;1.00;;;;;;;5.76;82.34;97784.61;213252;1279;139511;-69
2022/02/21 02:48:48;;;;;;;3.90;1.90;;;;;;;5.73;82.45;97775.11;214035;1277;140564;-74
2022/02/21 02:53:53;;;;;;;1.30;1.20;;;;;;;5.69;82.49;97757.84;213470;1279;141042;-73
2022/02/21 02:58:57;;;;;;;2.20;1.70;;;;;;;5.71;82.68;97745.85;212707;1279;140906;-73
2022/02/21 03:04:01;;;;;;;2.80;1.30;;;;;;;5.73;82.90;97725.84;213528;1278;140759;-73
2022/02/21 03:09:06;;;;;;;1.90;1.00;;;;;;;5.75;82.80;97706.55;213148;1278;141637;-72
2022/02/21 03:14:10;;;;;;;2.80;1.70;;;;;;;5.72;83.04;97691.36;212836;1278;141662;-73
2022/02/21 03:19:14;;;;;;;1.30;1.20;;;;;;;5.73;83.24;97673.08;214102;1277;141540;-75
2022/02/21 03:24:19;;;;;;;3.90;1.20;;;;;;;5.74;83.16;97650.40;214236;1278;141163;-73
2022/02/21 03:29:23;;;;;;;1.20;1.10;;;;;;;5.75;83.04;97642.79;212662;1279;141455;-72
2022/02/21 03:34:27;;;;;;;2.90;1.00;;;;;;;5.71;83.25;97624.52;212614;1280;139878;-73
2022/02/21 03:39:32;;;;;;;2.00;0.90;;;;;;;5.70;83.44;97624.20;214607;1279;141288;-75
2022/02/21 03:44:35;;;;;;;0.60;0.60;;;;;;;5.73;83.30;97622.54;214081;1279;141141;-73
2022/02/21 03:49:40;;;;;;;2.20;1.00;;;;;;;5.77;83.63;97613.94;214890;1277;141652;-70
2022/02/21 03:54:43;;;;;;;0.80;0.80;;;;;;;5.80;83.54;97614.27;215086;1277;140995;-75
2022/02/21 03:59:46;;;;;;;1.70;1.10;;;;;;;5.84;83.56;97613.74;215520;1277;139742;-76
2022/02/21 04:04:51;;;;;;;1.10;1.00;;;;;;;5.86;83.44;97605.18;215603;1277;141743;-74
2022/02/21 04:09:55;;;;;;;1.40;1.30;;;;;;;5.88;83.28;97590.79;215152;1278;140367;-74
2022/02/21 04:15:00;;;;;;;3.90;1.30;;;;;;;5.93;83.48;97590.25;215135;1277;141230;-73
2022/02/21 04:20:05;;;;;;;1.30;1.00;;;;;;;5.97;83.25;97578.80;213262;1277;141065;-74
2022/02/21 04:25:10;;;;;;;1.70;1.00;;;;;;;5.96;83.33;97561.17;214165;1277;140077;-73
2022/02/21 04:30:17;;;;;;;0.60;0.60;;;;;;;5.96;83.45;97567.73;213809;1277;140878;-73
2022/02/21 04:35:25;;;;;;;1.10;1.10;;;;;;;5.97;83.46;97557.48;213408;1278;139977;-72
2022/02/21 04:40:29;;;;;;;0.60;0.60;;;;;;;5.97;83.54;97535.27;213733;1278;140185;-73
2022/02/21 04:45:33;;;;;;;2.00;1.30;;;;;;;5.97;83.71;97530.18;213581;1278;140514;-73
2022/02/21 04:50:36;;;;;;;2.30;1.10;;;;;;;5.97;83.70;97518.23;213971;1277;139761;-72
2022/02/21 04:55:40;;;;;;;0.70;0.70;;;;;;;5.97;83.67;97504.91;214165;1277;140510;-73
2022/02/21 05:00:44;;;;;;;1.70;0.80;;;;;;;5.97;83.87;97505.44;214336;1277;140522;-75
2022/02/21 05:05:47;;;;;;;0.60;0.60;;;;;;;5.97;83.85;97511.58;213659;1277;141932;-73
2022/02/21 05:10:51;;;;;;;1.80;1.10;;;;;;;5.99;83.88;97511.89;213345;1278;140420;-73
2022/02/21 05:15:55;;;;;;;3.80;1.20;;;;;;;6.00;83.80;97494.88;212527;1277;139446;-69
2022/02/21 05:20:59;;;;;;;1.60;0.80;;;;;;;6.00;84.38;97484.09;213336;1277;139968;-72
2022/02/21 05:26:03;;;;;;;2.80;0.80;;;;;;;5.98;84.11;97459.85;213296;1277;140590;-70
2022/02/21 05:31:07;;;;;;;0.60;0.60;;;;;;;5.96;84.27;97465.50;213393;1277;140130;-74
2022/02/21 05:36:11;;;;;;;0.90;0.70;;;;;;;5.96;84.15;97438.37;214023;1278;139484;-74
2022/02/21 05:41:15;;;;;;;0.90;0.50;;;;;;;5.95;84.23;97449.89;213343;1277;140911;-74
2022/02/21 05:46:20;;;;;;;1.40;1.10;;;;;;;5.94;84.13;97433.98;213926;1279;140524;-74
2022/02/21 05:51:23;;;;;;;0.90;0.80;;;;;;;5.93;84.52;97430.42;214976;1277;143896;-74
2022/02/21 05:56:27;;;;;;;2.70;0.60;;;;;;;5.94;84.34;97431.33;213470;1277;141713;-72
2022/02/21 06:01:30;;;;;;;0.50;0.50;;;;;;;5.93;84.47;97424.88;215380;1277;140731;-74
2022/02/21 06:06:35;;;;;;;1.30;0.80;;;;;;;5.94;84.52;97411.55;215414;1277;141304;-76
2022/02/21 06:11:38;;;;;;;2.00;1.10;;;;;;;5.97;84.43;97415.89;215468;1277;141145;-72
2022/02/21 06:16:45;;;;;;;0.80;0.60;;;;;;;6.02;84.13;97411.27;215499;1277;141498;-77
2022/02/21 06:21:49;;;;;;;;;;;;;;;6.06;84.14;97400.05;215302;1277;141126;-73
2022/02/21 06:26:53;;;;;;;1.10;1.10;;;;;;;6.07;83.87;97402.54;215706;1277;127884;-71
2022/02/21 06:31:56;;;;;;;1.60;0.80;;;;;;;6.09;83.91;97405.19;213847;1277;141854;-77
2022/02/21 06:37:00;;;;;;;2.40;1.00;;;;;;;6.12;84.24;97395.71;212485;1277;141502;-78
2022/02/21 06:42:05;;;;;;;1.70;1.10;;;;;;;6.14;84.15;97400.89;213654;1277;140717;-75
2022/02/21 06:47:08;;;;;;;0.90;0.80;;;;;;;6.15;83.78;97393.01;213938;1277;141527;-74
2022/02/21 06:52:15;;;;;;;0.70;0.70;;;;;;;6.19;84.03;97391.48;214263;1277;141013;-79
2022/02/21 06:57:23;;;;;;;3.00;1.00;;;;;;;6.22;84.16;97388.10;214381;1277;150980;-71
2022/02/21 07:02:27;;;;;;;3.30;1.10;;;;;;;6.28;84.25;97398.16;213348;1277;140699;-73
2022/02/21 07:07:33;;;;;;;2.10;1.40;;;;;;;6.36;83.82;97400.29;213026;1277;141332;-71
2022/02/21 07:12:38;;;;;;;1.60;0.80;;;;;;;6.44;83.80;97405.30;213435;1277;142072;-72
2022/02/21 07:17:43;;;;;;;1.80;1.10;;;;;;;6.52;83.60;97414.99;213833;1278;140041;-74
2022/02/21 07:22:48;;;;;;;5.00;3.50;;;;;;;6.59;83.61;97420.02;214421;1277;141404;-70
2022/02/21 07:27:53;;;;;;;11.00;6.40;;;;;;;6.70;83.37;97422.52;214049;1277;140299;-72
2022/02/21 07:32:58;;;;;;;7.60;6.70;;;;;;;6.78;82.93;97428.00;213942;1277;209765;-72
2022/02/21 07:38:04;;;;;;;13.10;11.40;;;;;;;6.84;82.80;97438.44;213741;1274;141892;-72
2022/02/21 07:43:09;;;;;;;3.10;2.20;;;;;;;6.89;82.53;97428.70;214018;1277;141559;-75
2022/02/21 07:48:13;;;;;;;4.90;3.80;;;;;;;6.96;82.07;97433.30;214500;1277;141461;-69
2022/02/21 07:53:18;;;;;;;3.40;2.30;;;;;;;7.04;82.41;97435.39;214646;1276;141056;-72
2022/02/21 07:58:22;;;;;;;3.80;3.50;;;;;;;7.14;82.05;97434.36;215038;1277;140014;-71
2022/02/21 08:03:29;;;;;;;2.00;1.80;;;;;;;7.22;81.96;97446.02;215632;1277;140419;-74
2022/02/21 08:08:33;;;;;;;3.00;1.40;;;;;;;7.30;81.53;97447.32;215500;1277;140143;-74
2022/02/21 08:13:37;;;;;;;4.00;1.30;;;;;;;7.41;81.39;97435.13;215816;1277;142293;-73
2022/02/21 08:18:43;;;;;;;2.40;2.30;;;;;;;7.52;81.28;97436.70;214687;1277;140706;-73
2022/02/21 08:23:48;;;;;;;2.30;1.00;;;;;;;7.58;80.98;97446.02;214924;1277;140753;-72
2022/02/21 08:28:55;;;;;;;1.20;1.00;;;;;;;7.63;80.47;97443.56;215570;1277;140681;-73
2022/02/21 08:34:04;;;;;;;1.10;1.00;;;;;;;7.71;80.41;97445.73;214667;1277;140004;-72
2022/02/21 08:39:09;;;;;;;1.40;1.00;;;;;;;7.77;80.37;97455.48;214241;1277;140261;-69
2022/02/21 08:44:13;;;;;;;1.40;1.00;;;;;;;7.84;80.12;97460.70;215259;1277;140658;-75
2022/02/21 08:49:18;;;;;;;2.60;1.60;;;;;;;7.91;79.83;97470.45;214477;1280;139393;-74
2022/02/21 08:54:24;;;;;;;1.30;1.20;;;;;;;7.95;79.64;97468.43;214323;1278;140800;-75
2022/02/21 08:59:29;;;;;;;5.20;2.90;;;;;;;8.02;79.55;97470.95;213448;1277;139527;-74
2022/02/21 09:04:34;;;;;;;1.40;1.20;;;;;;;8.08;79.47;97473.73;214192;1279;139904;-72
2022/02/21 09:09:39;;;;;;;1.40;1.10;;;;;;;8.15;79.06;97462.45;213285;1277;140500;-70
2022/02/21 09:14:47;;;;;;;1.30;1.10;;;;;;;8.26;79.02;97462.23;212652;1279;140172;-72
2022/02/21 09:19:52;;;;;;;1.10;1.00;;;;;;;8.37;78.85;97458.41;214052;1277;139304;-75
2022/02/21 09:24:57;;;;;;;1.80;1.40;;;;;;;8.49;78.48;97457.49;213136;1277;139988;-72
2022/02/21 09:30:06;;;;;;;1.60;1.20;;;;;;;8.60;78.12;97459.27;212726;1277;232354;-74
2022/02/21 09:35:13;;;;;;;2.80;1.60;;;;;;;8.70;77.52;97470.77;213277;1277;140492;-74
2022/02/21 09:40:19;;;;;;;2.20;0.90;;;;;;;8.80;77.19;97468.46;213282;1277;487670;-75
2022/02/21 09:45:24;;;;;;;0.80;0.70;;;;;;;8.92;76.75;97464.73;212714;1277;139166;-74
2022/02/21 09:55:38;;;;;;;0.90;0.70;;;;;;;8.97;75.34;97489.24;212981;1309;686955;-72
2022/02/21 10:00:41;;;;;;;2.50;1.40;;;;;;;8.85;74.27;97513.58;211103;1287;138628;-72
2022/02/21 10:05:50;;;;;;;1.50;1.00;;;;;;;8.74;73.78;97525.66;212700;1286;370120;-68
2022/02/21 10:10:54;;;;;;;0.60;0.60;;;;;;;8.63;73.36;97552.56;213005;1285;140374;-69
2022/02/21 10:16:00;;;;;;;2.50;0.80;;;;;;;8.45;72.96;97567.65;213561;1284;139083;-68
2022/02/21 10:21:03;;;;;;;1.60;1.20;;;;;;;8.30;73.09;97559.63;213987;1284;160882;-69
2022/02/21 10:26:07;;;;;;;2.40;1.10;;;;;;;8.12;72.52;97613.14;214251;1284;139643;-71
2022/02/21 10:31:11;;;;;;;0.50;0.50;;;;;;;7.71;72.39;97664.84;214255;1283;139585;-73
2022/02/21 10:36:32;;;;;;;0.80;0.40;;;;;;;7.22;72.64;97658.94;214346;1284;139778;-78
2022/02/21 10:41:45;;;;;;;0.90;0.50;;;;;;;6.84;72.48;97669.83;214074;1284;139319;-75
2022/02/21 10:47:14;;;;;;;1.40;0.50;;;;;;;6.70;73.12;97679.23;212351;1284;139798;-76
2022/02/21 10:52:39;;;;;;;1.30;0.70;;;;;;;6.73;72.83;97674.04;212541;1286;140014;-74
2022/02/21 10:57:44;;;;;;;1.70;0.60;;;;;;;6.83;73.07;97676.51;212849;1284;139793;-75
2022/02/21 11:02:48;;;;;;;0.80;0.80;;;;;;;6.88;72.52;97710.63;212723;1284;139724;-76
2022/02/21 11:07:54;;;;;;;1.60;1.10;;;;;;;6.82;72.20;97680.41;214044;1277;138982;-76
2022/02/21 11:12:58;;;;;;;3.30;0.70;;;;;;;6.85;72.05;97674.92;214078;1276;139416;-74
2022/02/21 11:18:04;;;;;;;3.10;1.80;;;;;;;6.90;71.79;97693.54;213141;1277;139647;-69
2022/02/21 11:23:08;;;;;;;1.30;1.10;;;;;;;6.95;71.00;97687.73;213329;1279;141129;-71
2022/02/21 11:28:43;;;;;;;3.70;0.90;;;;;;;6.88;70.48;97686.74;213341;1277;138957;-71
2022/02/21 11:34:10;;;;;;;2.10;1.30;;;;;;;6.72;70.59;97693.73;212962;1279;138815;-69
2022/02/21 11:39:27;;;;;;;2.40;1.00;;;;;;;6.72;70.26;97705.81;213877;1279;139146;-73
2022/02/21 11:44:53;;;;;;;2.00;0.80;;;;;;;6.79;70.70;97727.54;214116;1278;140551;-73
2022/02/21 11:50:28;;;;;;;9.00;1.50;;;;;;;6.90;71.01;97731.56;213118;1277;140917;-73
2022/02/21 11:55:40;;;;;;;6.50;2.50;;;;;;;6.90;70.25;97745.60;213146;1279;139083;-74
2022/02/21 12:00:54;;;;;;;2.00;1.80;;;;;;;6.95;70.06;97752.24;212980;1277;139774;-74
2022/02/21 12:05:58;;;;;;;4.00;1.10;;;;;;;7.06;69.93;97771.02;213935;1277;139016;-75
2022/02/21 12:11:21;;;;;;;2.10;1.50;;;;;;;7.02;69.60;97776.85;213994;1277;140267;-74
2022/02/21 12:16:25;;;;;;;3.40;1.50;;;;;;;6.89;69.43;97782.77;213304;1277;139717;-75
2022/02/21 12:21:29;;;;;;;4.30;3.10;;;;;;;6.77;69.13;97785.42;215101;1277;139667;-72
2022/02/21 12:26:39;;;;;;;5.30;1.60;;;;;;;6.66;69.04;97787.45;215663;1277;140059;-71
2022/02/21 12:31:46;;;;;;;21.70;3.10;;;;;;;6.63;69.12;97793.56;215212;1277;138750;-73
2022/02/21 12:36:51;;;;;;;3.40;1.60;;;;;;;6.78;69.17;97807.56;214464;1277;138708;-71
2022/02/21 12:41:55;;;;;;;4.10;1.70;;;;;;;6.77;68.55;97805.81;214769;1279;139520;-72
2022/02/21 12:47:00;;;;;;;9.60;1.60;;;;;;;6.72;68.31;97796.84;215432;1273;139762;-72
2022/02/21 12:52:08;;;;;;;5.80;1.90;;;;;;;6.72;68.35;97816.02;214283;1273;139889;-75
2022/02/21 12:57:12;;;;;;;3.40;1.40;;;;;;;6.86;68.21;97812.01;215169;1273;139922;-75
2022/02/21 13:02:22;;;;;;;7.40;1.80;;;;;;;6.98;67.51;97819.07;213652;1273;140419;-72
2022/02/21 13:07:28;;;;;;;8.10;2.60;;;;;;;7.10;67.03;97813.96;213657;1273;140285;-72
2022/02/21 13:12:35;;;;;;;5.90;1.50;;;;;;;7.19;67.09;97810.35;213171;1273;140630;-71
2022/02/21 13:17:38;;;;;;;3.10;1.30;;;;;;;7.21;66.41;97810.89;214012;1273;140545;-71
2022/02/21 13:22:42;;;;;;;2.10;1.90;;;;;;;7.08;65.94;97830.23;213552;1273;140533;-72
2022/02/21 13:27:46;;;;;;;6.70;2.50;;;;;;;7.12;66.04;97843.27;213621;1273;139939;-71
2022/02/21 13:33:08;;;;;;;3.10;2.10;;;;;;;7.15;65.61;97848.02;213953;1273;140130;-70
2022/02/21 13:38:11;;;;;;;2.20;1.10;;;;;;;7.15;65.35;97865.60;214055;1273;152124;-78
2022/02/21 13:43:23;;;;;;;4.20;1.70;;;;;;;7.22;64.58;97871.10;213908;1273;140731;-73
2022/02/21 13:48:42;;;;;;;2.30;1.20;;;;;;;7.21;64.37;97884.77;213688;1273;140128;-75
2022/02/21 13:53:45;;;;;;;4.50;2.00;;;;;;;6.98;64.17;97888.45;214459;1273;140267;-74
2022/02/21 13:58:50;;;;;;;2.50;1.70;;;;;;;6.85;64.27;97893.62;213945;1273;140038;-77
2022/02/21 14:03:56;;;;;;;3.90;2.00;;;;;;;6.81;64.24;97881.57;214895;1273;138702;-82
2022/02/21 14:09:01;;;;;;;1.20;1.10;;;;;;;6.80;64.33;97882.26;213915;1273;140796;-72
2022/02/21 14:18:34;;;;;;;5.30;1.00;;;;;;;6.68;63.78;97902.14;212012;1312;655584;-71
2022/02/21 14:23:38;;;;;;;0.80;0.70;;;;;;;6.58;63.89;97905.88;210953;1287;141024;-75
2022/02/21 14:28:43;;;;;;;3.40;1.30;;;;;;;6.51;63.64;97903.60;212724;1288;442515;-78
2022/02/21 14:33:49;;;;;;;1.20;1.00;;;;;;;6.35;63.80;97902.52;213522;1286;138866;-76
2022/02/21 14:38:54;;;;;;;3.20;2.10;;;;;;;6.15;63.66;97925.10;213177;1287;140457;-73
2022/02/21 14:43:58;;;;;;;2.40;1.90;;;;;;;6.15;64.41;97916.35;213828;1286;138533;-77
2022/02/21 14:49:03;;;;;;;3.00;1.70;;;;;;;6.16;64.90;97914.35;213862;1286;139322;-75
2022/02/21 14:54:08;;;;;;;2.60;1.30;;;;;;;6.39;64.82;97920.49;215471;1276;139220;-77
2022/02/21 14:59:12;;;;;;;2.00;1.50;;;;;;;6.62;64.02;97920.11;215161;1276;138859;-69
2022/02/21 15:04:18;;;;;;;1.00;1.00;;;;;;;6.58;63.46;97921.39;214250;1276;139699;-79
2022/02/21 15:09:24;;;;;;;5.00;1.40;;;;;;;6.29;62.75;97922.69;213561;1277;139394;-74
2022/02/21 15:14:32;;;;;;;4.80;1.80;;;;;;;6.01;61.81;97916.34;214932;1274;138315;-74
2022/02/21 15:19:40;;;;;;;1.30;0.90;;;;;;;5.83;62.15;97934.15;214165;1274;139722;-76
2022/02/21 15:24:46;;;;;;;0.90;0.90;;;;;;;5.61;62.13;97934.90;213772;1276;139496;-77
2022/02/21 15:29:54;;;;;;;2.50;1.00;;;;;;;5.41;62.08;97940.96;212887;1276;139026;-73
2022/02/21 15:35:00;;;;;;;0.80;0.80;;;;;;;5.21;62.35;97966.73;213119;1274;140725;-79
2022/02/21 15:40:07;;;;;;;4.00;1.20;;;;;;;4.99;62.75;97969.21;213492;1274;139021;-78
2022/02/21 15:45:12;;;;;;;3.40;1.10;;;;;;;4.84;63.06;97956.84;213151;1274;138937;-70
2022/02/21 15:50:18;;;;;;;2.90;0.80;;;;;;;4.68;63.22;97965.73;212977;1276;139465;-78
2022/02/21 15:55:22;;;;;;;1.70;1.30;;;;;;;4.53;63.32;97970.35;214799;1274;161161;-75
2022/02/21 16:00:26;;;;;;;1.20;1.10;;;;;;;4.37;63.65;97971.27;213826;1274;138666;-77
2022/02/21 16:05:32;;;;;;;3.00;1.30;;;;;;;4.18;63.74;97979.98;213642;1274;139033;-77
2022/02/21 16:10:37;;;;;;;2.00;0.80;;;;;;;4.03;63.62;97981.27;214187;1274;138540;-78
2022/02/21 16:15:42;;;;;;;1.50;1.40;;;;;;;3.93;64.01;97974.96;214594;1276;140977;-72
2022/02/21 16:20:48;;;;;;;3.30;1.90;;;;;;;3.84;64.11;97975.70;213345;1276;139910;-75
2022/02/21 16:25:54;;;;;;;2.10;1.30;;;;;;;3.75;64.18;97973.60;214892;1274;139767;-72
2022/02/21 16:30:59;;;;;;;2.70;1.80;;;;;;;3.69;64.61;97981.76;214090;1274;138698;-80
2022/02/21 16:36:05;;;;;;;3.00;1.40;;;;;;;3.60;64.94;97988.88;214108;1274;139352;-78
2022/02/21 16:41:10;;;;;;;4.10;2.00;;;;;;;3.55;65.02;97991.35;215090;1274;141645;-72
2022/02/21 16:46:23;;;;;;;4.50;2.30;;;;;;;3.53;65.21;97994.55;215793;1274;141270;-76
2022/02/21 16:51:31;;;;;;;2.00;1.40;;;;;;;3.50;65.65;97993.60;216057;1274;140729;-79
2022/02/21 16:56:41;;;;;;;10.70;3.30;;;;;;;3.45;65.63;97992.75;214726;1276;141156;-73
2022/02/21 17:01:49;;;;;;;7.10;2.50;;;;;;;3.41;65.70;97990.02;215927;1274;141206;-71
2022/02/21 17:06:54;;;;;;;6.60;2.40;;;;;;;3.37;65.89;97991.16;214812;1276;138645;-72
2022/02/21 17:11:58;;;;;;;7.80;3.00;;;;;;;3.28;66.18;98004.10;214468;1274;139848;-79
2022/02/21 17:17:04;;;;;;;6.00;3.80;;;;;;;3.25;66.21;98003.91;215122;1274;208612;-72
2022/02/21 17:22:09;;;;;;;6.80;2.80;;;;;;;3.24;66.62;98005.42;213139;1276;141411;-68
2022/02/21 17:27:16;;;;;;;3.50;2.80;;;;;;;3.24;66.74;98003.95;213811;1276;140865;-69
2022/02/21 17:32:22;;;;;;;9.60;3.40;;;;;;;3.20;66.69;98002.96;213111;1274;139885;-70
2022/02/21 17:37:26;;;;;;;7.20;2.60;;;;;;;3.13;66.97;97998.06;213036;1277;139528;-70
2022/02/21 17:42:33;;;;;;;3.80;2.80;;;;;;;3.01;67.05;97997.55;213449;1277;138562;-71
2022/02/21 17:47:38;;;;;;;5.40;2.40;;;;;;;2.94;66.96;97999.81;214084;1277;138802;-74
2022/02/21 17:52:43;;;;;;;4.40;2.10;;;;;;;2.87;67.02;97995.64;212891;1274;139671;-76
2022/02/21 17:57:47;;;;;;;38.20;17.60;;;;;;;2.80;67.00;97999.09;214018;1274;139384;-70
2022/02/21 18:02:52;;;;;;;50.60;23.00;;;;;;;2.73;67.65;97994.94;213377;1274;140402;-75
2022/02/21 18:07:58;;;;;;;10.20;5.20;;;;;;;2.67;67.10;97990.54;213642;1276;141618;-75
2022/02/21 18:13:03;;;;;;;7.80;5.00;;;;;;;2.61;67.66;97990.48;214216;1274;139137;-75
2022/02/21 18:18:11;;;;;;;5.50;3.50;;;;;;;2.56;67.51;97986.21;214400;1274;139172;-72
2022/02/21 18:23:17;;;;;;;8.00;5.60;;;;;;;2.54;67.46;97981.79;215031;1274;140686;-74
2022/02/21 18:28:21;;;;;;;4.00;2.20;;;;;;;2.53;67.73;97981.96;213347;1274;139425;-73
2022/02/21 18:33:30;;;;;;;3.40;2.30;;;;;;;2.52;67.67;97985.61;214230;1274;140484;-69
2022/02/21 18:38:37;;;;;;;4.30;2.50;;;;;;;2.52;67.74;97980.89;213427;1274;139965;-74
2022/02/21 18:43:42;;;;;;;5.70;3.20;;;;;;;2.51;67.89;97979.80;214134;1274;140202;-74
2022/02/21 18:48:48;;;;;;;3.90;3.30;;;;;;;2.49;67.87;97973.33;212960;1276;141510;-70
2022/02/21 18:53:53;;;;;;;5.40;3.60;;;;;;;2.46;67.86;97972.90;216162;1274;140529;-77
2022/02/21 18:59:06;;;;;;;6.50;3.10;;;;;;;2.39;68.11;97980.01;214703;1274;140124;-80
2022/02/21 19:04:12;;;;;;;8.00;4.80;;;;;;;2.34;67.97;97974.24;215935;1274;141727;-78
2022/02/21 19:09:20;;;;;;;10.50;5.20;;;;;;;2.31;68.12;97976.08;216005;1274;139688;-77
2022/02/21 19:14:27;;;;;;;11.30;4.70;;;;;;;2.31;68.16;97976.80;215220;1274;140761;-77
2022/02/21 19:19:33;;;;;;;5.30;4.00;;;;;;;2.32;68.21;97980.55;214938;1276;140915;-79
2022/02/21 19:24:39;;;;;;;7.40;4.20;;;;;;;2.26;68.06;97980.45;213097;1274;140252;-76
2022/02/21 19:29:44;;;;;;;13.30;5.40;;;;;;;2.20;68.22;97978.73;214650;1274;140200;-71
2022/02/21 19:34:50;;;;;;;9.50;5.00;;;;;;;2.14;68.41;97979.30;215064;1274;140791;-73
2022/02/21 19:39:54;;;;;;;19.40;5.50;;;;;;;2.07;68.18;97982.53;213649;1276;140189;-73
2022/02/21 19:45:01;;;;;;;11.40;6.10;;;;;;;2.04;68.23;97980.38;214305;1276;140751;-69
2022/02/21 19:50:06;;;;;;;16.00;6.00;;;;;;;2.05;68.74;97978.75;213947;1274;139613;-76
2022/02/21 19:55:12;;;;;;;10.40;5.20;;;;;;;2.06;68.58;97976.92;213149;1274;140975;-74
2022/02/21 20:00:18;;;;;;;13.90;5.40;;;;;;;2.06;68.78;97979.42;213313;1276;138884;-73
2022/02/21 20:05:22;;;;;;;13.70;6.30;;;;;;;2.04;68.78;97983.81;213643;1274;141638;-75
2022/02/21 20:10:27;;;;;;;9.70;5.60;;;;;;;2.00;68.66;97983.61;213283;1274;140607;-72
2022/02/21 20:15:31;;;;;;;10.00;5.00;;;;;;;1.96;68.75;97981.04;213134;1275;149845;-76
2022/02/21 20:20:35;;;;;;;11.60;5.50;;;;;;;1.92;68.64;97974.21;213636;1276;139037;-72
2022/02/21 20:25:39;;;;;;;16.30;6.90;;;;;;;1.90;69.23;97967.85;213358;1276;139777;-72
2022/02/21 20:30:44;;;;;;;18.60;6.30;;;;;;;1.91;69.07;97960.56;213977;1274;165334;-73
2022/02/21 20:35:48;;;;;;;12.50;5.30;;;;;;;1.91;68.95;97968.25;214574;1276;139713;-70
2022/02/21 20:40:53;;;;;;;14.60;6.40;;;;;;;1.92;68.69;97972.20;215604;1274;140484;-71
2022/02/21 20:45:58;;;;;;;13.60;6.80;;;;;;;1.92;68.88;97975.10;215002;1274;139594;-75
2022/02/21 20:51:03;;;;;;;12.80;5.20;;;;;;;1.98;69.25;97973.25;215714;1274;139454;-73
2022/02/21 20:56:08;;;;;;;16.40;4.50;;;;;;;2.06;69.00;97975.58;215864;1274;140339;-78
2022/02/21 21:01:12;;;;;;;12.90;5.50;;;;;;;2.18;69.19;97980.93;215784;1274;141259;-74
2022/02/21 21:06:16;;;;;;;13.00;6.20;;;;;;;2.28;69.32;97978.34;215906;1276;141099;-81
2022/02/21 21:11:21;;;;;;;9.80;5.30;;;;;;;2.33;69.13;97977.17;215953;1274;139984;-72
2022/02/21 21:16:26;;;;;;;11.30;5.50;;;;;;;2.35;69.24;97983.42;215965;1274;139840;-70
2022/02/21 21:21:30;;;;;;;9.40;4.80;;;;;;;2.38;69.25;97977.88;215694;1274;141450;-71
2022/02/21 21:26:35;;;;;;;13.00;5.80;;;;;;;2.43;68.84;97979.27;214818;1276;139061;-71
2022/02/21 21:31:40;;;;;;;11.80;4.80;;;;;;;2.47;68.74;97982.17;213508;1277;141972;-71
2022/02/21 21:36:46;;;;;;;17.20;4.90;;;;;;;2.49;69.00;97982.02;214315;1276;222974;-71
2022/02/21 21:41:50;;;;;;;8.00;3.40;;;;;;;2.45;68.95;97979.08;214466;1276;139077;-73
2022/02/21 21:46:55;;;;;;;12.50;5.10;;;;;;;2.40;69.29;97983.55;213446;1274;140640;-71
2022/02/21 21:52:01;;;;;;;11.40;5.30;;;;;;;2.40;68.96;97988.21;214018;1274;140778;-70
2022/02/21 21:57:05;;;;;;;16.40;5.70;;;;;;;2.43;69.19;97990.92;214572;1274;141920;-72
2022/02/21 22:02:12;;;;;;;10.80;4.60;;;;;;;2.45;69.20;97986.30;213960;1276;139896;-74
2022/02/21 22:07:16;;;;;;;11.70;5.90;;;;;;;2.41;69.08;97986.30;212953;1276;140843;-75
2022/02/21 22:12:20;;;;;;;11.00;4.90;;;;;;;2.36;69.15;97987.38;213568;1274;141742;-75
2022/02/21 22:17:26;;;;;;;8.90;5.10;;;;;;;2.32;69.26;97989.13;213996;1274;140226;-72
2022/02/21 22:22:31;;;;;;;14.60;5.20;;;;;;;2.30;69.54;97981.58;212972;1274;140846;-72
2022/02/21 22:27:38;;;;;;;12.40;4.20;;;;;;;2.31;68.98;97989.05;213044;1274;140571;-69
2022/02/21 22:32:43;;;;;;;9.20;3.70;;;;;;;2.39;69.63;97996.71;214936;1274;143612;-73
2022/02/21 22:37:49;;;;;;;13.20;5.20;;;;;;;2.49;69.18;98000.73;213974;1276;139551;-74
2022/02/21 22:42:56;;;;;;;9.00;3.70;;;;;;;2.58;69.09;98004.92;213950;1276;139492;-72
2022/02/21 22:48:02;;;;;;;14.20;3.80;;;;;;;2.67;68.79;98007.95;215008;1274;139180;-73
2022/02/21 22:53:08;;;;;;;13.00;4.20;;;;;;;2.76;68.95;98003.99;213151;1276;140776;-68
2022/02/21 22:58:13;;;;;;;4.60;3.70;;;;;;;2.85;68.87;98016.56;213800;1276;140915;-69
2022/02/21 23:03:18;;;;;;;5.10;2.50;;;;;;;2.93;69.01;98021.61;214153;1276;139641;-72
2022/02/21 23:08:24;;;;;;;8.40;2.70;;;;;;;3.01;68.77;98030.55;215653;1276;139380;-74
2022/02/21 23:13:30;;;;;;;11.00;4.30;;;;;;;3.09;68.83;98037.99;212935;1274;140692;-73
2022/02/21 23:18:34;;;;;;;8.70;3.20;;;;;;;3.18;68.79;98037.88;215572;1276;141394;-79
2022/02/21 23:23:39;;;;;;;13.70;4.40;;;;;;;3.26;68.61;98038.60;215578;1276;140901;-76
2022/02/21 23:28:43;;;;;;;31.10;13.80;;;;;;;3.35;68.31;98039.48;215530;1276;138803;-76
2022/02/21 23:33:48;;;;;;;18.40;13.10;;;;;;;3.45;68.21;98047.38;215197;1275;140098;-76
2022/02/21 23:38:55;;;;;;;13.30;8.80;;;;;;;3.57;67.96;98055.04;214594;1276;140412;-73
2022/02/21 23:44:00;;;;;;;6.20;2.70;;;;;;;3.65;68.01;98060.08;213240;1276;140146;-73
2022/02/21 23:49:05;;;;;;;6.90;3.90;;;;;;;3.69;68.04;98075.27;213904;1276;139682;-74